createdAt,value
2018-07-25T00:00:19.907Z,18.97
2018-07-25T00:01:26.357Z,19.00
2018-07-25T00:02:32.917Z,19.01
2018-07-25T00:03:39.460Z,19.08
2018-07-25T00:04:46.030Z,19.12
2018-07-25T00:05:52.558Z,19.13
2018-07-25T00:06:59.130Z,19.17
2018-07-25T00:08:05.675Z,19.18
2018-07-25T00:09:12.250Z,19.20
2018-07-25T00:10:18.807Z,19.21
2018-07-25T00:11:25.361Z,19.24
2018-07-25T00:12:31.923Z,19.27
2018-07-25T00:13:38.495Z,19.30
2018-07-25T00:14:45.069Z,19.30
2018-07-25T00:15:51.631Z,19.27
2018-07-25T00:16:58.203Z,19.20
2018-07-25T00:18:04.771Z,19.16
2018-07-25T00:19:11.345Z,19.11
2018-07-25T00:20:17.919Z,19.07
2018-07-25T00:21:24.534Z,19.00
2018-07-25T00:22:31.057Z,18.93
2018-07-25T00:23:37.633Z,18.88
2018-07-25T00:24:44.219Z,18.87
2018-07-25T00:25:50.801Z,18.88
2018-07-25T00:26:57.373Z,18.91
2018-07-25T00:28:03.944Z,18.92
2018-07-25T00:29:10.530Z,18.90
2018-07-25T00:30:17.101Z,18.88
2018-07-25T00:31:24.160Z,18.87
2018-07-25T00:32:30.233Z,18.86
2018-07-25T00:33:36.800Z,18.83
2018-07-25T00:34:43.373Z,18.77
2018-07-25T00:35:49.935Z,18.71
2018-07-25T00:36:56.692Z,18.66
2018-07-25T00:38:03.068Z,18.75
2018-07-25T00:39:09.629Z,18.76
2018-07-25T00:40:16.190Z,18.71
2018-07-25T00:41:22.747Z,18.65
2018-07-25T00:42:29.360Z,18.60
2018-07-25T00:43:35.858Z,18.59
2018-07-25T00:44:42.419Z,18.53
2018-07-25T00:45:48.960Z,18.46
2018-07-25T00:46:55.524Z,18.37
2018-07-25T00:48:02.078Z,18.29
2018-07-25T00:49:08.631Z,18.21
2018-07-25T00:50:15.202Z,18.19
2018-07-25T00:51:21.740Z,18.16
2018-07-25T00:52:28.288Z,18.17
2018-07-25T00:53:34.840Z,18.16
2018-07-25T00:54:41.405Z,18.13
2018-07-25T00:55:47.946Z,18.09
2018-07-25T00:56:54.508Z,18.14
2018-07-25T00:58:01.057Z,18.13
2018-07-25T00:59:07.606Z,18.14
2018-07-25T01:00:14.156Z,18.08
2018-07-25T01:01:20.696Z,18.00
2018-07-25T01:02:27.251Z,17.94
2018-07-25T01:03:33.895Z,17.90
2018-07-25T01:04:40.338Z,17.88
2018-07-25T01:05:46.883Z,17.92
2018-07-25T01:06:53.422Z,17.97
2018-07-25T01:07:59.972Z,17.97
2018-07-25T01:09:06.525Z,18.00
2018-07-25T01:10:13.066Z,18.02
2018-07-25T01:11:19.608Z,18.05
2018-07-25T01:12:26.624Z,18.09
2018-07-25T01:13:32.673Z,18.16
2018-07-25T01:14:39.214Z,18.21
2018-07-25T01:15:45.757Z,18.23
2018-07-25T01:16:52.294Z,18.19
2018-07-25T01:17:58.832Z,18.14
2018-07-25T01:19:05.368Z,18.08
2018-07-25T01:20:11.928Z,18.03
2018-07-25T01:21:18.431Z,17.96
2018-07-25T01:22:24.982Z,17.92
2018-07-25T01:23:31.517Z,17.88
2018-07-25T01:24:38.049Z,17.82
2018-07-25T01:25:44.593Z,17.77
2018-07-25T01:26:51.130Z,17.74
2018-07-25T01:27:57.658Z,17.73
2018-07-25T01:29:04.195Z,17.79
2018-07-25T01:30:10.748Z,18.02
2018-07-25T01:31:17.277Z,18.05
2018-07-25T01:32:23.825Z,18.03
2018-07-25T01:33:30.361Z,18.01
2018-07-25T01:34:36.913Z,18.00
2018-07-25T01:35:43.458Z,18.04
2018-07-25T01:36:50.002Z,18.07
2018-07-25T01:37:56.552Z,18.03
2018-07-25T01:39:03.103Z,17.95
2018-07-25T01:40:09.648Z,18.01
2018-07-25T01:41:16.190Z,18.12
2018-07-25T01:42:22.737Z,18.22
2018-07-25T01:43:29.289Z,18.27
2018-07-25T01:44:35.839Z,18.24
2018-07-25T01:45:42.397Z,18.21
2018-07-25T01:46:48.938Z,18.21
2018-07-25T01:47:55.494Z,18.21
2018-07-25T01:49:02.037Z,18.18
2018-07-25T01:50:08.596Z,18.21
2018-07-25T01:51:15.134Z,18.21
2018-07-25T01:52:21.679Z,18.21
2018-07-25T01:53:28.237Z,18.25
2018-07-25T01:54:34.778Z,18.21
2018-07-25T01:55:41.342Z,18.16
2018-07-25T01:56:47.881Z,18.08
2018-07-25T01:57:54.420Z,17.97
2018-07-25T01:59:00.967Z,17.89
2018-07-25T02:00:07.519Z,17.79
2018-07-25T02:01:14.049Z,17.68
2018-07-25T02:02:20.610Z,17.84
2018-07-25T02:03:27.140Z,17.90
2018-07-25T02:04:33.683Z,17.83
2018-07-25T02:05:40.240Z,17.75
2018-07-25T02:06:46.765Z,17.63
2018-07-25T02:07:53.307Z,17.59
2018-07-25T02:08:59.850Z,17.60
2018-07-25T02:10:06.395Z,17.52
2018-07-25T02:11:12.942Z,17.42
2018-07-25T02:12:19.465Z,17.32
2018-07-25T02:13:26.004Z,17.27
2018-07-25T02:14:32.540Z,17.20
2018-07-25T02:15:39.085Z,17.15
2018-07-25T02:16:45.624Z,17.10
2018-07-25T02:17:52.152Z,17.04
2018-07-25T02:18:58.692Z,16.98
2018-07-25T02:20:05.237Z,16.93
2018-07-25T02:21:11.769Z,16.92
2018-07-25T02:22:18.298Z,16.90
2018-07-25T02:23:24.832Z,16.87
2018-07-25T02:24:31.369Z,16.86
2018-07-25T02:25:37.909Z,16.91
2018-07-25T02:26:44.433Z,16.95
2018-07-25T02:27:50.977Z,17.02
2018-07-25T02:28:57.512Z,17.14
2018-07-25T02:30:04.038Z,17.11
2018-07-25T02:31:10.578Z,17.01
2018-07-25T02:32:18.111Z,16.95
2018-07-25T02:33:23.642Z,16.91
2018-07-25T02:34:30.172Z,16.87
2018-07-25T02:35:36.732Z,16.83
2018-07-25T02:36:43.246Z,16.79
2018-07-25T02:37:49.924Z,16.75
2018-07-25T02:38:56.316Z,16.71
2018-07-25T02:40:02.856Z,16.66
2018-07-25T02:41:09.409Z,16.62
2018-07-25T02:42:15.934Z,16.55
2018-07-25T02:43:22.484Z,16.47
2018-07-25T02:44:29.018Z,16.43
2018-07-25T02:45:35.563Z,16.43
2018-07-25T02:46:42.111Z,16.44
2018-07-25T02:47:48.646Z,16.47
2018-07-25T02:48:55.193Z,16.47
2018-07-25T02:50:01.721Z,16.47
2018-07-25T02:51:08.269Z,16.46
2018-07-25T02:52:14.800Z,16.37
2018-07-25T02:53:21.346Z,16.31
2018-07-25T02:54:27.892Z,16.23
2018-07-25T02:55:34.432Z,16.15
2018-07-25T02:56:40.996Z,16.12
2018-07-25T02:57:47.495Z,16.16
2018-07-25T02:58:54.039Z,16.14
2018-07-25T03:00:00.569Z,16.13
2018-07-25T03:01:07.108Z,16.12
2018-07-25T03:02:13.630Z,16.18
2018-07-25T03:03:20.167Z,16.14
2018-07-25T03:04:26.699Z,16.11
2018-07-25T03:05:33.253Z,16.08
2018-07-25T03:06:39.771Z,16.02
2018-07-25T03:07:46.288Z,15.97
2018-07-25T03:08:52.882Z,15.96
2018-07-25T03:09:59.348Z,15.97
2018-07-25T03:11:05.878Z,16.02
2018-07-25T03:12:12.396Z,16.04
2018-07-25T03:13:18.934Z,16.04
2018-07-25T03:14:25.440Z,16.07
2018-07-25T03:15:31.985Z,16.08
2018-07-25T03:16:38.554Z,16.09
2018-07-25T03:17:45.017Z,16.11
2018-07-25T03:18:51.549Z,16.16
2018-07-25T03:19:58.236Z,16.17
2018-07-25T03:21:04.618Z,16.17
2018-07-25T03:22:11.129Z,16.19
2018-07-25T03:23:17.658Z,16.20
2018-07-25T03:24:24.179Z,16.20
2018-07-25T03:25:30.715Z,16.19
2018-07-25T03:26:37.243Z,16.15
2018-07-25T03:27:43.770Z,16.14
2018-07-25T03:28:50.297Z,16.12
2018-07-25T03:29:56.821Z,16.15
2018-07-25T03:31:03.368Z,16.12
2018-07-25T03:32:09.876Z,16.09
2018-07-25T03:33:17.404Z,16.05
2018-07-25T03:34:22.945Z,16.03
2018-07-25T03:35:29.465Z,16.02
2018-07-25T03:36:35.996Z,16.01
2018-07-25T03:37:42.524Z,16.00
2018-07-25T03:38:49.042Z,16.00
2018-07-25T03:39:55.569Z,15.96
2018-07-25T03:41:02.108Z,15.94
2018-07-25T03:42:08.629Z,15.92
2018-07-25T03:43:15.169Z,15.91
2018-07-25T03:44:21.694Z,15.93
2018-07-25T03:45:28.254Z,15.94
2018-07-25T03:46:34.772Z,15.95
2018-07-25T03:47:41.325Z,15.96
2018-07-25T03:48:47.898Z,15.97
2018-07-25T03:49:54.333Z,16.01
2018-07-25T03:51:01.901Z,16.06
2018-07-25T03:52:07.407Z,16.13
2018-07-25T03:53:13.932Z,16.19
2018-07-25T03:54:20.475Z,16.25
2018-07-25T03:55:26.992Z,16.30
2018-07-25T03:56:33.536Z,16.33
2018-07-25T03:57:40.064Z,16.36
2018-07-25T03:58:46.612Z,16.42
2018-07-25T03:59:53.134Z,16.45
2018-07-25T04:00:59.692Z,16.52
2018-07-25T04:02:06.292Z,16.57
2018-07-25T04:03:12.748Z,16.64
2018-07-25T04:04:19.291Z,16.70
2018-07-25T04:05:25.911Z,16.79
2018-07-25T04:06:32.367Z,16.86
2018-07-25T04:07:38.897Z,16.91
2018-07-25T04:08:45.449Z,16.96
2018-07-25T04:09:51.986Z,17.02
2018-07-25T04:10:58.550Z,17.18
2018-07-25T04:12:05.273Z,17.28
2018-07-25T04:13:11.618Z,17.37
2018-07-25T04:14:18.169Z,17.48
2018-07-25T04:15:24.719Z,17.55
2018-07-25T04:16:31.285Z,17.60
2018-07-25T04:17:37.828Z,17.66
2018-07-25T04:18:44.372Z,17.73
2018-07-25T04:19:50.939Z,17.80
2018-07-25T04:20:57.482Z,17.87
2018-07-25T04:22:04.053Z,17.94
2018-07-25T04:23:10.603Z,18.02
2018-07-25T04:24:17.166Z,18.11
2018-07-25T04:25:23.746Z,18.19
2018-07-25T04:26:31.299Z,18.28
2018-07-25T04:27:36.882Z,18.39
2018-07-25T04:28:43.458Z,18.50
2018-07-25T04:29:50.014Z,18.61
2018-07-25T04:30:56.594Z,18.73
2018-07-25T04:32:03.191Z,18.84
2018-07-25T04:33:09.755Z,18.95
2018-07-25T04:34:16.354Z,19.02
2018-07-25T04:35:22.927Z,19.09
2018-07-25T04:36:29.518Z,19.16
2018-07-25T04:37:36.111Z,19.22
2018-07-25T04:38:42.694Z,19.31
2018-07-25T04:39:49.297Z,19.39
2018-07-25T04:40:56.899Z,19.48
2018-07-25T04:42:02.506Z,19.57
2018-07-25T04:43:09.117Z,19.64
2018-07-25T04:44:15.709Z,19.74
2018-07-25T04:45:22.332Z,19.83
2018-07-25T04:46:29.019Z,19.95
2018-07-25T04:47:35.556Z,20.06
2018-07-25T04:48:42.179Z,20.16
2018-07-25T04:49:48.813Z,20.29
2018-07-25T04:50:55.958Z,20.39
2018-07-25T04:52:02.066Z,20.50
2018-07-25T04:53:08.717Z,20.60
2018-07-25T04:54:16.341Z,20.69
2018-07-25T04:55:21.993Z,20.77
2018-07-25T04:56:28.635Z,20.85
2018-07-25T04:57:35.281Z,20.93
2018-07-25T04:58:41.931Z,21.01
2018-07-25T04:59:48.585Z,21.09
2018-07-25T05:00:55.249Z,21.18
2018-07-25T05:02:01.914Z,21.25
2018-07-25T05:03:08.580Z,21.32
2018-07-25T05:04:15.234Z,21.40
2018-07-25T05:05:21.903Z,21.48
2018-07-25T05:06:28.580Z,21.58
2018-07-25T05:07:35.240Z,21.65
2018-07-25T05:08:41.913Z,21.73
2018-07-25T05:09:48.593Z,21.81
2018-07-25T05:10:55.270Z,21.87
2018-07-25T05:12:01.952Z,21.96
2018-07-25T05:13:08.619Z,22.03
2018-07-25T05:14:15.304Z,22.06
2018-07-25T05:15:21.984Z,22.08
2018-07-25T05:16:28.736Z,22.09
2018-07-25T05:17:35.357Z,22.12
2018-07-25T05:18:42.056Z,22.12
2018-07-25T05:19:48.738Z,22.11
2018-07-25T05:20:55.439Z,22.09
2018-07-25T05:22:02.129Z,22.09
2018-07-25T05:23:08.824Z,22.07
2018-07-25T05:24:15.498Z,22.05
2018-07-25T05:25:22.194Z,22.03
2018-07-25T05:26:28.881Z,22.01
2018-07-25T05:27:35.573Z,22.00
2018-07-25T05:28:42.255Z,22.00
2018-07-25T05:29:48.954Z,21.98
2018-07-25T05:30:55.635Z,21.99
2018-07-25T05:32:02.335Z,22.00
2018-07-25T05:33:09.014Z,22.01
2018-07-25T05:34:15.705Z,22.03
2018-07-25T05:35:22.405Z,22.12
2018-07-25T05:36:29.091Z,22.23
2018-07-25T05:37:35.777Z,22.37
2018-07-25T05:38:42.467Z,22.56
2018-07-25T05:39:49.148Z,22.68
2018-07-25T05:40:55.834Z,22.74
2018-07-25T05:42:02.532Z,22.76
2018-07-25T05:43:09.219Z,22.78
2018-07-25T05:44:16.899Z,22.85
2018-07-25T05:45:22.587Z,22.89
2018-07-25T05:46:29.273Z,22.94
2018-07-25T05:47:35.974Z,22.99
2018-07-25T05:48:42.668Z,23.04
2018-07-25T05:49:49.351Z,23.08
2018-07-25T05:50:56.021Z,23.09
2018-07-25T05:52:02.713Z,23.17
2018-07-25T05:53:09.396Z,23.23
2018-07-25T05:54:16.094Z,23.31
2018-07-25T05:55:22.774Z,23.35
2018-07-25T05:56:29.466Z,23.41
2018-07-25T05:57:36.159Z,23.47
2018-07-25T05:58:43.184Z,23.56
2018-07-25T05:59:49.529Z,23.64
2018-07-25T06:00:56.226Z,23.69
2018-07-25T06:02:02.924Z,23.73
2018-07-25T06:03:09.665Z,23.84
2018-07-25T06:04:16.367Z,23.96
2018-07-25T06:05:22.996Z,24.05
2018-07-25T06:06:29.714Z,24.09
2018-07-25T06:07:36.406Z,24.09
2018-07-25T06:08:43.133Z,24.12
2018-07-25T06:09:49.893Z,24.12
2018-07-25T06:10:56.514Z,24.23
2018-07-25T06:12:03.710Z,24.35
2018-07-25T06:13:09.911Z,24.45
2018-07-25T06:14:16.705Z,24.50
2018-07-25T06:15:23.316Z,24.57
2018-07-25T06:16:30.030Z,24.60
2018-07-25T06:17:36.758Z,24.64
2018-07-25T06:18:43.441Z,24.61
2018-07-25T06:19:50.158Z,24.65
2018-07-25T06:20:57.358Z,24.74
2018-07-25T06:22:03.582Z,24.82
2018-07-25T06:23:10.287Z,24.86
2018-07-25T06:24:17.003Z,24.82
2018-07-25T06:25:23.724Z,24.76
2018-07-25T06:26:30.448Z,24.73
2018-07-25T06:27:37.162Z,24.72
2018-07-25T06:28:43.871Z,24.84
2018-07-25T06:29:50.598Z,24.90
2018-07-25T06:30:57.309Z,24.93
2018-07-25T06:32:04.045Z,24.96
2018-07-25T06:33:10.752Z,25.02
2018-07-25T06:34:17.484Z,25.06
2018-07-25T06:35:24.196Z,25.13
2018-07-25T06:36:30.934Z,25.16
2018-07-25T06:37:37.668Z,25.23
2018-07-25T06:38:44.384Z,25.30
2018-07-25T06:39:51.110Z,25.33
2018-07-25T06:40:57.853Z,25.34
2018-07-25T06:42:04.583Z,25.35
2018-07-25T06:43:11.335Z,25.36
2018-07-25T06:44:18.046Z,25.38
2018-07-25T06:45:24.778Z,25.47
2018-07-25T06:46:31.518Z,25.51
2018-07-25T06:47:38.258Z,25.53
2018-07-25T06:48:45.011Z,25.54
2018-07-25T06:49:51.726Z,25.53
2018-07-25T06:50:58.468Z,25.56
2018-07-25T06:52:05.223Z,25.58
2018-07-25T06:53:12.015Z,25.60
2018-07-25T06:54:18.725Z,25.65
2018-07-25T06:55:25.473Z,25.70
2018-07-25T06:56:32.224Z,25.68
2018-07-25T06:57:38.996Z,25.70
2018-07-25T06:58:45.734Z,25.72
2018-07-25T06:59:52.504Z,25.72
2018-07-25T07:00:59.265Z,25.72
2018-07-25T07:02:06.028Z,25.78
2018-07-25T07:03:12.796Z,25.78
2018-07-25T07:04:19.571Z,25.80
2018-07-25T07:05:26.356Z,25.88
2018-07-25T07:06:33.127Z,25.95
2018-07-25T07:07:39.877Z,26.00
2018-07-25T07:08:46.641Z,26.03
2018-07-25T07:09:53.923Z,26.04
2018-07-25T07:11:00.209Z,26.03
2018-07-25T07:12:07.033Z,26.08
2018-07-25T07:13:13.776Z,26.10
2018-07-25T07:14:20.552Z,26.09
2018-07-25T07:15:27.349Z,26.13
2018-07-25T07:16:34.152Z,26.18
2018-07-25T07:17:40.936Z,26.24
2018-07-25T07:18:47.720Z,26.33
2018-07-25T07:19:54.513Z,26.43
2018-07-25T07:21:01.321Z,26.50
2018-07-25T07:22:08.114Z,26.57
2018-07-25T07:23:14.919Z,26.63
2018-07-25T07:24:21.720Z,26.68
2018-07-25T07:25:28.533Z,26.71
2018-07-25T07:26:35.318Z,26.70
2018-07-25T07:27:42.138Z,26.65
2018-07-25T07:28:48.934Z,26.62
2018-07-25T07:29:55.746Z,26.60
2018-07-25T07:31:02.546Z,26.63
2018-07-25T07:32:09.369Z,26.66
2018-07-25T07:33:16.180Z,26.73
2018-07-25T07:34:22.992Z,27.19
2018-07-25T07:35:29.830Z,28.00
2018-07-25T07:36:36.626Z,28.47
2018-07-25T07:37:43.505Z,28.59
2018-07-25T07:38:50.273Z,28.58
2018-07-25T07:39:57.084Z,28.46
2018-07-25T07:41:03.917Z,28.26
2018-07-25T07:42:10.743Z,28.14
2018-07-25T07:43:17.574Z,28.09
2018-07-25T07:44:24.392Z,28.05
2018-07-25T07:45:31.220Z,28.03
2018-07-25T07:46:38.059Z,28.02
2018-07-25T07:47:45.935Z,27.96
2018-07-25T07:48:54.180Z,27.92
2018-07-25T07:50:01.105Z,27.92
2018-07-25T07:51:07.353Z,27.93
2018-07-25T07:52:12.249Z,27.93
2018-07-25T07:53:19.098Z,27.92
2018-07-25T07:54:25.936Z,27.94
2018-07-25T07:55:32.779Z,27.96
2018-07-25T07:56:39.620Z,27.96
2018-07-25T07:57:46.475Z,27.97
2018-07-25T07:58:53.324Z,27.99
2018-07-25T08:00:01.176Z,28.04
2018-07-25T08:01:07.029Z,28.09
2018-07-25T08:02:13.893Z,28.14
2018-07-25T08:03:20.757Z,28.21
2018-07-25T08:04:27.616Z,28.26
2018-07-25T08:05:34.485Z,28.18
2018-07-25T08:06:41.351Z,28.14
2018-07-25T08:07:48.234Z,28.17
2018-07-25T08:08:55.095Z,28.22
2018-07-25T08:10:01.970Z,28.28
2018-07-25T08:11:08.849Z,28.38
2018-07-25T08:12:16.724Z,28.45
2018-07-25T08:13:22.617Z,28.46
2018-07-25T08:14:29.474Z,28.44
2018-07-25T08:15:36.360Z,28.42
2018-07-25T08:16:43.251Z,28.45
2018-07-25T08:17:50.172Z,28.55
2018-07-25T08:18:57.019Z,28.67
2018-07-25T08:20:03.973Z,28.80
2018-07-25T08:21:10.879Z,28.83
2018-07-25T08:22:17.706Z,28.81
2018-07-25T08:23:24.603Z,28.80
2018-07-25T08:24:31.490Z,28.78
2018-07-25T08:25:38.383Z,28.81
2018-07-25T08:26:45.286Z,28.89
2018-07-25T08:27:52.187Z,28.87
2018-07-25T08:28:59.085Z,28.91
2018-07-25T08:30:05.995Z,29.03
2018-07-25T08:31:12.895Z,29.02
2018-07-25T08:32:19.792Z,29.01
2018-07-25T08:33:26.712Z,29.04
2018-07-25T08:34:33.698Z,29.09
2018-07-25T08:35:40.541Z,29.13
2018-07-25T08:36:47.439Z,29.25
2018-07-25T08:37:54.362Z,29.33
2018-07-25T08:39:01.265Z,29.37
2018-07-25T08:40:08.172Z,29.46
2018-07-25T08:41:15.107Z,29.50
2018-07-25T08:42:22.012Z,29.48
2018-07-25T08:43:28.936Z,29.41
2018-07-25T08:44:35.850Z,29.42
2018-07-25T08:45:42.774Z,29.46
2018-07-25T08:46:49.704Z,29.52
2018-07-25T08:47:56.933Z,29.64
2018-07-25T08:49:03.564Z,29.72
2018-07-25T08:50:10.491Z,29.78
2018-07-25T08:51:17.408Z,29.83
2018-07-25T08:52:24.408Z,29.88
2018-07-25T08:53:31.288Z,29.93
2018-07-25T08:54:38.213Z,30.00
2018-07-25T08:55:45.139Z,30.05
2018-07-25T08:56:52.085Z,30.07
2018-07-25T08:57:59.024Z,30.09
2018-07-25T08:59:05.971Z,30.14
2018-07-25T09:00:12.905Z,30.24
2018-07-25T09:01:19.839Z,30.28
2018-07-25T09:02:26.771Z,30.29
2018-07-25T09:03:33.724Z,30.35
2018-07-25T09:04:40.664Z,30.42
2018-07-25T09:05:47.635Z,30.54
2018-07-25T09:06:54.569Z,30.64
2018-07-25T09:08:01.505Z,30.69
2018-07-25T09:09:08.475Z,30.62
2018-07-25T09:10:15.421Z,30.51
2018-07-25T09:11:22.399Z,30.51
2018-07-25T09:12:29.327Z,30.58
2018-07-25T09:13:36.299Z,30.56
2018-07-25T09:14:43.248Z,30.64
2018-07-25T09:15:50.221Z,30.74
2018-07-25T09:16:57.236Z,30.77
2018-07-25T09:18:04.139Z,30.71
2018-07-25T09:19:11.104Z,30.71
2018-07-25T09:20:18.061Z,30.75
2018-07-25T09:21:25.047Z,30.83
2018-07-25T09:22:32.011Z,30.94
2018-07-25T09:23:38.980Z,30.97
2018-07-25T09:24:45.941Z,30.98
2018-07-25T09:25:52.914Z,31.00
2018-07-25T09:26:59.891Z,31.09
2018-07-25T09:28:06.860Z,31.08
2018-07-25T09:29:13.845Z,31.06
2018-07-25T09:30:20.809Z,31.07
2018-07-25T09:31:27.905Z,31.16
2018-07-25T09:32:34.772Z,31.27
2018-07-25T09:33:41.828Z,31.30
2018-07-25T09:34:48.741Z,31.29
2018-07-25T09:35:55.740Z,31.38
2018-07-25T09:37:02.725Z,31.50
2018-07-25T09:38:09.715Z,31.65
2018-07-25T09:39:16.724Z,31.76
2018-07-25T09:40:23.709Z,31.88
2018-07-25T09:41:30.708Z,31.97
2018-07-25T09:42:37.710Z,32.03
2018-07-25T09:43:44.729Z,32.08
2018-07-25T09:44:51.715Z,32.06
2018-07-25T09:45:58.724Z,32.08
2018-07-25T09:47:05.789Z,32.06
2018-07-25T09:48:12.731Z,32.02
2018-07-25T09:49:19.763Z,32.04
2018-07-25T09:50:26.744Z,32.02
2018-07-25T09:51:33.754Z,31.91
2018-07-25T09:52:40.975Z,31.86
2018-07-25T09:53:47.776Z,31.95
2018-07-25T09:54:54.775Z,31.94
2018-07-25T09:56:01.902Z,31.88
2018-07-25T09:57:08.817Z,31.83
2018-07-25T09:58:15.897Z,31.83
2018-07-25T09:59:22.828Z,31.88
2018-07-25T10:00:29.919Z,31.88
2018-07-25T10:01:36.848Z,31.96
2018-07-25T10:02:43.869Z,32.05
2018-07-25T10:03:50.881Z,32.19
2018-07-25T10:04:57.889Z,32.29
2018-07-25T10:06:04.905Z,32.34
2018-07-25T10:07:11.992Z,32.43
2018-07-25T10:08:18.936Z,32.54
2018-07-25T10:09:25.953Z,32.65
2018-07-25T10:10:32.961Z,32.76
2018-07-25T10:11:39.992Z,32.82
2018-07-25T10:12:47.016Z,32.79
2018-07-25T10:13:54.042Z,32.69
2018-07-25T10:15:01.060Z,32.63
2018-07-25T10:16:08.112Z,32.54
2018-07-25T10:17:15.109Z,32.56
2018-07-25T10:18:22.631Z,32.64
2018-07-25T10:19:29.184Z,32.71
2018-07-25T10:20:36.279Z,32.83
2018-07-25T10:21:43.241Z,32.95
2018-07-25T10:22:50.257Z,33.00
2018-07-25T10:23:57.324Z,33.07
2018-07-25T10:25:04.338Z,33.14
2018-07-25T10:26:11.361Z,33.22
2018-07-25T10:27:18.423Z,33.24
2018-07-25T10:28:25.459Z,33.31
2018-07-25T10:29:32.487Z,33.32
2018-07-25T10:30:39.507Z,33.32
2018-07-25T10:31:46.562Z,33.43
2018-07-25T10:32:53.670Z,33.37
2018-07-25T10:34:00.641Z,33.19
2018-07-25T10:35:07.692Z,33.20
2018-07-25T10:36:14.719Z,33.26
2018-07-25T10:37:21.765Z,33.34
2018-07-25T10:38:28.815Z,33.39
2018-07-25T10:39:35.866Z,33.36
2018-07-25T10:40:42.896Z,33.32
2018-07-25T10:41:50.942Z,33.30
2018-07-25T10:42:56.993Z,33.40
2018-07-25T10:44:04.054Z,33.48
2018-07-25T10:45:11.089Z,33.52
2018-07-25T10:46:18.141Z,33.55
2018-07-25T10:47:25.203Z,33.53
2018-07-25T10:48:32.254Z,33.62
2018-07-25T10:49:39.311Z,33.67
2018-07-25T10:50:46.347Z,33.73
2018-07-25T10:51:53.412Z,33.83
2018-07-25T10:53:00.473Z,33.95
2018-07-25T10:54:07.540Z,34.13
2018-07-25T10:55:14.613Z,34.12
2018-07-25T10:56:21.661Z,34.09
2018-07-25T10:57:28.738Z,34.07
2018-07-25T10:58:35.907Z,34.03
2018-07-25T10:59:42.879Z,34.05
2018-07-25T11:00:50.437Z,34.12
2018-07-25T11:01:57.024Z,34.09
2018-07-25T11:03:04.105Z,34.11
2018-07-25T11:04:11.185Z,34.06
2018-07-25T11:05:18.252Z,34.09
2018-07-25T11:06:25.333Z,34.13
2018-07-25T11:07:32.410Z,34.14
2018-07-25T11:08:39.507Z,34.37
2018-07-25T11:09:46.662Z,34.47
2018-07-25T11:10:53.664Z,34.59
2018-07-25T11:12:00.753Z,34.62
2018-07-25T11:13:07.868Z,34.57
2018-07-25T11:14:15.024Z,34.56
2018-07-25T11:15:22.240Z,34.34
2018-07-25T11:16:29.549Z,34.21
2018-07-25T11:17:36.945Z,34.19
2018-07-25T11:18:44.411Z,34.28
2018-07-25T11:19:52.449Z,34.40
2018-07-25T11:20:59.564Z,34.51
2018-07-25T11:22:07.211Z,34.73
2018-07-25T11:23:14.925Z,34.89
2018-07-25T11:24:22.686Z,35.01
2018-07-25T11:25:30.492Z,35.09
2018-07-25T11:26:38.330Z,35.18
2018-07-25T11:27:46.232Z,35.18
2018-07-25T11:28:54.147Z,35.02
2018-07-25T11:30:02.131Z,34.92
2018-07-25T11:31:10.110Z,34.84
2018-07-25T11:32:18.147Z,34.70
2018-07-25T11:33:26.203Z,34.65
2018-07-25T11:34:34.204Z,34.59
2018-07-25T11:35:42.070Z,34.36
2018-07-25T11:36:49.845Z,33.99
2018-07-25T11:37:58.505Z,33.61
2018-07-25T11:39:05.145Z,33.36
2018-07-25T11:40:12.846Z,33.27
2018-07-25T11:41:20.596Z,33.29
2018-07-25T11:42:28.415Z,33.40
2018-07-25T11:43:36.539Z,33.67
2018-07-25T11:44:44.282Z,34.06
2018-07-25T11:45:52.283Z,34.24
2018-07-25T11:47:00.341Z,34.35
2018-07-25T11:48:08.451Z,34.45
2018-07-25T11:49:16.602Z,34.49
2018-07-25T11:50:24.820Z,34.40
2018-07-25T11:51:32.937Z,34.29
2018-07-25T11:52:41.160Z,34.32
2018-07-25T11:53:49.859Z,34.47
2018-07-25T11:54:57.685Z,34.60
2018-07-25T11:56:05.962Z,34.67
2018-07-25T11:57:14.274Z,34.58
2018-07-25T11:58:22.608Z,34.45
2018-07-25T11:59:30.936Z,34.55
2018-07-25T12:00:39.256Z,34.89
2018-07-25T12:01:47.711Z,35.13
2018-07-25T12:02:55.961Z,35.18
2018-07-25T12:04:04.321Z,35.02
2018-07-25T12:05:12.686Z,34.90
2018-07-25T12:06:21.032Z,34.83
2018-07-25T12:07:29.438Z,34.87
2018-07-25T12:08:37.776Z,34.97
2018-07-25T12:09:46.183Z,35.14
2018-07-25T12:10:54.584Z,35.38
2018-07-25T12:12:03.006Z,35.53
2018-07-25T12:13:11.411Z,35.70
2018-07-25T12:14:19.853Z,35.74
2018-07-25T12:15:28.316Z,35.73
2018-07-25T12:16:36.765Z,35.50
2018-07-25T12:17:45.218Z,35.19
2018-07-25T12:18:53.722Z,35.10
2018-07-25T12:20:02.168Z,35.21
2018-07-25T12:21:10.683Z,35.34
2018-07-25T12:22:19.134Z,35.65
2018-07-25T12:23:27.618Z,36.04
2018-07-25T12:24:36.118Z,36.39
2018-07-25T12:25:44.620Z,36.61
2018-07-25T12:26:53.174Z,36.93
2018-07-25T12:28:01.706Z,37.11
2018-07-25T12:29:10.207Z,37.22
2018-07-25T12:30:18.758Z,37.27
2018-07-25T12:31:27.308Z,37.03
2018-07-25T12:32:35.875Z,36.92
2018-07-25T12:33:44.319Z,36.61
2018-07-25T12:34:52.666Z,36.53
2018-07-25T12:36:00.879Z,36.53
2018-07-25T12:37:09.011Z,36.55
2018-07-25T12:38:17.049Z,36.54
2018-07-25T12:39:25.008Z,36.64
2018-07-25T12:40:32.939Z,36.64
2018-07-25T12:41:40.804Z,36.59
2018-07-25T12:42:48.636Z,36.54
2018-07-25T12:43:56.389Z,36.64
2018-07-25T12:45:04.156Z,36.54
2018-07-25T12:46:11.896Z,36.57
2018-07-25T12:47:19.655Z,36.68
2018-07-25T12:48:27.450Z,36.84
2018-07-25T12:49:35.197Z,36.65
2018-07-25T12:50:42.939Z,36.50
2018-07-25T12:51:50.649Z,36.33
2018-07-25T12:52:58.341Z,36.14
2018-07-25T12:54:06.133Z,36.12
2018-07-25T12:55:13.714Z,36.23
2018-07-25T12:56:21.357Z,36.37
2018-07-25T12:57:29.028Z,36.42
2018-07-25T12:58:36.659Z,36.44
2018-07-25T12:59:44.304Z,36.57
2018-07-25T13:00:51.953Z,36.68
2018-07-25T13:01:59.572Z,36.59
2018-07-25T13:06:05.122Z,36.73
2018-07-25T13:07:12.251Z,36.88
2018-07-25T13:08:19.820Z,36.83
2018-07-25T13:09:27.391Z,36.79
2018-07-25T13:10:34.966Z,36.76
2018-07-25T13:11:42.475Z,36.78
2018-07-25T13:12:50.018Z,36.91
2018-07-25T13:13:57.550Z,37.05
2018-07-25T13:15:05.082Z,37.11
2018-07-25T13:16:12.602Z,37.20
2018-07-25T13:17:20.123Z,37.34
2018-07-25T13:18:27.649Z,37.48
2018-07-25T13:19:35.165Z,37.55
2018-07-25T13:20:42.700Z,37.52
2018-07-25T13:21:50.213Z,37.58
2018-07-25T13:22:57.795Z,37.68
2018-07-25T13:24:05.267Z,37.67
2018-07-25T13:25:12.806Z,37.74
2018-07-25T13:26:20.354Z,37.93
2018-07-25T13:27:27.993Z,38.29
2018-07-25T13:28:35.680Z,38.56
2018-07-25T13:29:43.479Z,38.70
2018-07-25T13:30:51.356Z,39.01
2018-07-25T13:31:59.305Z,39.13
2018-07-25T13:33:07.284Z,39.29
2018-07-25T13:34:15.339Z,39.30
2018-07-25T13:35:23.455Z,39.33
2018-07-25T13:36:31.586Z,39.45
2018-07-25T13:37:39.772Z,39.36
2018-07-25T13:38:47.989Z,39.42
2018-07-25T13:39:56.264Z,39.24
2018-07-25T13:41:04.527Z,39.33
2018-07-25T13:42:12.809Z,39.27
2018-07-25T13:43:21.122Z,39.09
2018-07-25T13:44:29.447Z,39.16
2018-07-25T13:45:37.871Z,39.19
2018-07-25T13:46:46.098Z,39.09
2018-07-25T13:47:54.338Z,38.84
2018-07-25T13:49:02.499Z,38.49
2018-07-25T13:50:10.617Z,38.20
2018-07-25T13:51:18.672Z,37.94
2018-07-25T13:52:26.770Z,37.78
2018-07-25T13:53:34.883Z,37.85
2018-07-25T13:54:43.095Z,37.85
2018-07-25T13:55:51.236Z,37.93
2018-07-25T13:56:59.740Z,38.06
2018-07-25T13:58:07.690Z,38.28
2018-07-25T13:59:15.956Z,38.32
2018-07-25T14:00:24.223Z,38.24
2018-07-25T14:01:32.462Z,38.21
2018-07-25T14:02:40.712Z,38.13
2018-07-25T14:03:48.943Z,38.17
2018-07-25T14:04:57.728Z,38.18
2018-07-25T14:06:05.455Z,38.11
2018-07-25T14:07:13.714Z,38.19
2018-07-25T14:08:21.999Z,38.34
2018-07-25T14:09:30.296Z,38.41
2018-07-25T14:10:38.614Z,38.35
2018-07-25T14:11:47.029Z,38.22
2018-07-25T14:12:55.247Z,38.07
2018-07-25T14:14:04.104Z,38.01
2018-07-25T14:15:11.957Z,38.04
2018-07-25T14:16:20.244Z,38.05
2018-07-25T14:17:28.572Z,38.01
2018-07-25T14:18:36.900Z,37.99
2018-07-25T14:19:45.243Z,37.90
2018-07-25T14:20:53.577Z,38.02
2018-07-25T14:22:01.899Z,38.12
2018-07-25T14:23:10.214Z,38.18
2018-07-25T14:24:18.563Z,38.28
2018-07-25T14:25:26.875Z,38.30